createdAt,value
2023-03-24T00:00:20.584Z,100.00
2023-03-24T00:02:49.106Z,100.00
2023-03-24T00:05:21.623Z,100.00
2023-03-24T00:07:54.775Z,100.00
2023-03-24T00:10:22.709Z,100.00
2023-03-24T00:12:51.015Z,100.00
2023-03-24T00:15:21.180Z,100.00
2023-03-24T00:17:51.819Z,100.00
2023-03-24T00:20:20.842Z,100.00
2023-03-24T00:22:51.082Z,100.00
2023-03-24T00:25:20.302Z,100.00
2023-03-24T00:27:48.859Z,100.00
2023-03-24T00:30:17.508Z,100.00
2023-03-24T00:32:45.116Z,100.00
2023-03-24T00:35:14.775Z,100.00
2023-03-24T00:37:42.831Z,100.00
2023-03-24T00:40:13.101Z,100.00
2023-03-24T00:42:41.332Z,100.00
2023-03-24T00:45:12.127Z,100.00
2023-03-24T00:47:39.222Z,100.00
2023-03-24T00:50:09.768Z,100.00
2023-03-24T00:52:37.896Z,100.00
2023-03-24T00:55:06.218Z,100.00
2023-03-24T00:57:35.979Z,100.00
2023-03-24T01:00:14.633Z,100.00
2023-03-24T01:02:43.912Z,100.00
2023-03-24T01:05:11.247Z,100.00
2023-03-24T01:07:41.549Z,100.00
2023-03-24T01:10:13.084Z,100.00
2023-03-24T01:12:40.880Z,100.00
2023-03-24T01:15:19.921Z,100.00
2023-03-24T01:17:48.682Z,100.00
2023-03-24T01:20:16.173Z,100.00
2023-03-24T01:22:45.042Z,100.00
2023-03-24T01:25:17.809Z,100.00
2023-03-24T01:27:46.629Z,100.00
2023-03-24T01:30:16.108Z,100.00
2023-03-24T01:32:43.954Z,100.00
2023-03-24T01:35:11.806Z,100.00
2023-03-24T01:37:39.265Z,100.00
2023-03-24T01:40:11.357Z,100.00
2023-03-24T01:42:39.560Z,100.00
2023-03-24T01:45:38.610Z,100.00
2023-03-24T01:48:15.493Z,100.00
2023-03-24T01:50:46.667Z,100.00
2023-03-24T01:53:13.700Z,100.00
2023-03-24T01:55:40.542Z,100.00
2023-03-24T01:58:08.841Z,100.00
2023-03-24T02:00:51.202Z,100.00
2023-03-24T02:03:40.115Z,100.00
2023-03-24T02:06:08.678Z,100.00
2023-03-24T02:08:50.748Z,100.00
2023-03-24T02:11:17.495Z,100.00
2023-03-24T02:13:51.506Z,100.00
2023-03-24T02:16:33.011Z,100.00
2023-03-24T02:19:25.204Z,100.00
2023-03-24T02:22:26.414Z,100.00
2023-03-24T02:25:44.103Z,100.00
2023-03-24T02:28:27.995Z,100.00
2023-03-24T02:31:16.291Z,100.00
2023-03-24T02:34:13.543Z,100.00
2023-03-24T02:36:55.402Z,100.00
2023-03-24T02:39:53.293Z,100.00
2023-03-24T02:42:40.153Z,100.00
2023-03-24T02:45:12.912Z,100.00
2023-03-24T02:47:58.163Z,100.00
2023-03-24T02:50:53.838Z,100.00
2023-03-24T02:53:33.009Z,100.00
2023-03-24T02:56:33.407Z,100.00
2023-03-24T02:59:32.542Z,100.00
2023-03-24T03:02:08.605Z,100.00
2023-03-24T03:04:57.960Z,100.00
2023-03-24T03:07:27.370Z,100.00
2023-03-24T03:10:02.415Z,100.00
2023-03-24T03:12:34.786Z,100.00
2023-03-24T03:15:15.970Z,100.00
2023-03-24T03:17:53.506Z,100.00
2023-03-24T03:20:24.296Z,100.00
2023-03-24T03:23:00.855Z,100.00
2023-03-24T03:25:33.174Z,100.00
2023-03-24T03:28:03.680Z,100.00
2023-03-24T03:30:40.129Z,100.00
2023-03-24T03:33:13.258Z,100.00
2023-03-24T03:36:02.956Z,100.00
2023-03-24T03:39:09.703Z,100.00
2023-03-24T03:41:38.606Z,100.00
2023-03-24T03:44:05.517Z,100.00
2023-03-24T03:46:32.623Z,100.00
2023-03-24T03:48:59.859Z,100.00
2023-03-24T03:51:27.148Z,100.00
2023-03-24T03:54:01.157Z,100.00
2023-03-24T03:56:32.560Z,100.00
2023-03-24T03:59:35.453Z,100.00
2023-03-24T04:02:28.219Z,100.00
2023-03-24T04:05:14.695Z,100.00
2023-03-24T04:08:03.569Z,100.00
2023-03-24T04:11:17.957Z,100.00
2023-03-24T04:14:22.925Z,100.00
2023-03-24T04:17:41.650Z,100.00
2023-03-24T04:20:14.728Z,100.00
2023-03-24T04:23:09.356Z,100.00
2023-03-24T04:25:49.878Z,100.00
2023-03-24T04:28:26.513Z,100.00
2023-03-24T04:31:28.103Z,100.00
2023-03-24T04:34:07.606Z,100.00
2023-03-24T04:37:04.069Z,100.00
2023-03-24T04:39:58.895Z,100.00
2023-03-24T04:42:36.129Z,100.00
2023-03-24T04:45:05.756Z,100.00
2023-03-24T04:48:00.254Z,100.00
2023-03-24T04:50:40.484Z,100.00
2023-03-24T04:53:13.332Z,100.00
2023-03-24T04:55:49.472Z,100.00
2023-03-24T04:58:22.884Z,100.00
2023-03-24T05:00:50.435Z,100.00
2023-03-24T05:03:18.767Z,100.00
2023-03-24T05:05:48.365Z,100.00
2023-03-24T05:08:16.561Z,100.00
2023-03-24T05:10:43.749Z,100.00
2023-03-24T05:13:11.494Z,100.00
2023-03-24T05:15:40.579Z,100.00
2023-03-24T05:18:27.405Z,100.00
2023-03-24T05:20:56.351Z,100.00
2023-03-24T05:23:23.216Z,100.00
2023-03-24T05:25:50.666Z,100.00
2023-03-24T05:28:19.269Z,100.00
2023-03-24T05:30:46.708Z,100.00
2023-03-24T05:33:33.649Z,100.00
2023-03-24T05:36:01.248Z,100.00
2023-03-24T05:38:28.350Z,100.00
2023-03-24T05:40:58.189Z,100.00
2023-03-24T05:43:28.544Z,100.00
2023-03-24T05:46:03.998Z,100.00
2023-03-24T05:48:33.082Z,100.00
2023-03-24T05:51:17.677Z,100.00
2023-03-24T05:53:45.936Z,100.00
2023-03-24T05:56:15.492Z,100.00
2023-03-24T05:58:58.772Z,100.00
2023-03-24T06:01:43.345Z,100.00
2023-03-24T06:04:21.078Z,100.00
2023-03-24T06:06:49.457Z,100.00
2023-03-24T06:09:20.342Z,100.00
2023-03-24T06:11:47.126Z,100.00
2023-03-24T06:14:14.746Z,100.00
2023-03-24T06:16:53.321Z,100.00
2023-03-24T06:19:22.615Z,100.00
2023-03-24T06:22:02.956Z,100.00
2023-03-24T06:24:34.419Z,100.00
2023-03-24T06:27:08.948Z,100.00
2023-03-24T06:29:36.494Z,100.00
2023-03-24T06:32:03.599Z,100.00
2023-03-24T06:34:38.850Z,99.29
2023-03-24T06:37:16.918Z,99.61
2023-03-24T06:39:43.978Z,98.72
2023-03-24T06:42:14.680Z,99.21
2023-03-24T06:44:42.022Z,99.92
2023-03-24T06:47:08.718Z,100.00
2023-03-24T06:49:37.146Z,100.00
2023-03-24T06:52:04.782Z,100.00
2023-03-24T06:54:34.300Z,100.00
2023-03-24T06:57:01.932Z,100.00
2023-03-24T06:59:49.163Z,100.00
2023-03-24T07:02:15.914Z,100.00
2023-03-24T07:04:45.796Z,100.00
2023-03-24T07:10:14.204Z,100.00
2023-03-24T07:12:41.510Z,100.00
2023-03-24T07:15:09.382Z,100.00
2023-03-24T07:17:36.349Z,100.00
2023-03-24T07:20:12.424Z,98.95
2023-03-24T07:22:42.413Z,98.78
2023-03-24T07:25:24.560Z,98.62
2023-03-24T07:28:14.319Z,98.66
2023-03-24T07:30:41.748Z,98.15
2023-03-24T07:33:12.744Z,97.56
2023-03-24T07:35:41.930Z,97.63
2023-03-24T07:38:10.648Z,98.22
2023-03-24T07:40:37.889Z,97.68
2023-03-24T07:43:05.882Z,96.94
2023-03-24T07:45:51.610Z,96.55
2023-03-24T07:48:18.407Z,97.05
2023-03-24T07:50:45.362Z,95.32
2023-03-24T07:53:33.822Z,95.47
2023-03-24T07:56:00.809Z,94.36
2023-03-24T07:58:27.944Z,94.75
2023-03-24T08:01:10.478Z,93.53
2023-03-24T08:03:42.575Z,93.32
2023-03-24T08:06:15.640Z,93.97
2023-03-24T08:08:50.504Z,93.05
2023-03-24T08:11:17.157Z,93.42
2023-03-24T08:13:43.793Z,92.12
2023-03-24T08:16:10.589Z,91.87
2023-03-24T08:18:37.198Z,91.61
2023-03-24T08:21:03.861Z,91.08
2023-03-24T08:23:30.445Z,90.33
2023-03-24T08:25:57.318Z,89.73
2023-03-24T08:28:23.986Z,90.79
2023-03-24T08:30:50.868Z,88.13
2023-03-24T08:33:17.943Z,87.21
2023-03-24T08:35:48.234Z,87.09
2023-03-24T08:38:18.577Z,86.68
2023-03-24T08:40:45.985Z,86.54
2023-03-24T08:43:15.996Z,85.09
2023-03-24T08:45:42.943Z,85.17
2023-03-24T08:48:09.982Z,86.06
2023-03-24T08:50:41.014Z,85.00
2023-03-24T08:53:08.782Z,83.31
2023-03-24T08:55:37.891Z,84.43
2023-03-24T08:58:04.777Z,83.86
2023-03-24T09:00:31.524Z,82.52
2023-03-24T09:02:58.665Z,82.46
2023-03-24T09:05:40.685Z,84.25
2023-03-24T09:08:12.381Z,83.32
2023-03-24T09:10:39.951Z,82.04
2023-03-24T09:13:07.018Z,81.82
2023-03-24T09:15:33.732Z,81.95
2023-03-24T09:18:00.827Z,81.31
2023-03-24T09:20:27.474Z,80.93
2023-03-24T09:22:55.851Z,80.73
2023-03-24T09:25:23.812Z,80.12
2023-03-24T09:27:50.453Z,79.46
2023-03-24T09:30:18.216Z,78.99
2023-03-24T09:32:45.879Z,78.73
2023-03-24T09:35:13.179Z,76.92
2023-03-24T09:37:41.119Z,77.89
2023-03-24T09:40:08.246Z,79.06
2023-03-24T09:42:41.541Z,79.16
2023-03-24T09:45:18.165Z,79.19
2023-03-24T09:47:52.542Z,79.00
2023-03-24T09:50:43.307Z,77.95
2023-03-24T09:53:29.235Z,75.74
2023-03-24T09:55:57.379Z,76.53
2023-03-24T09:58:29.671Z,77.46
2023-03-24T10:00:57.620Z,77.36
2023-03-24T10:03:24.494Z,77.41
2023-03-24T10:06:26.664Z,76.18
2023-03-24T10:09:15.762Z,72.85
2023-03-24T10:12:00.610Z,73.08
2023-03-24T10:14:45.351Z,70.09
2023-03-24T10:17:23.934Z,69.63
2023-03-24T10:20:09.389Z,67.85
2023-03-24T10:22:54.623Z,68.21
2023-03-24T10:25:30.953Z,65.98
2023-03-24T10:28:16.865Z,65.79
2023-03-24T10:30:46.228Z,66.87
2023-03-24T10:33:15.022Z,64.65
2023-03-24T10:35:51.745Z,64.72
2023-03-24T10:38:21.272Z,65.13
2023-03-24T10:40:48.908Z,64.20
2023-03-24T10:43:19.492Z,62.12
2023-03-24T10:45:52.443Z,64.50
2023-03-24T10:48:43.176Z,67.44
2023-03-24T10:51:19.416Z,66.08
2023-03-24T10:53:48.701Z,65.61
2023-03-24T10:56:38.306Z,65.57
2023-03-24T10:59:19.050Z,63.14
2023-03-24T11:01:46.671Z,59.89
2023-03-24T11:04:16.898Z,60.02
2023-03-24T11:07:11.243Z,60.04
2023-03-24T11:09:46.521Z,59.58
2023-03-24T11:12:28.102Z,59.73
2023-03-24T11:15:20.981Z,58.56
2023-03-24T11:18:01.823Z,57.61
2023-03-24T11:20:43.818Z,58.98
2023-03-24T11:23:31.315Z,60.32
2023-03-24T11:26:06.950Z,60.40
2023-03-24T11:28:39.267Z,62.64
2023-03-24T11:31:09.130Z,61.60
2023-03-24T11:34:02.770Z,62.15
2023-03-24T11:36:38.249Z,64.22
2023-03-24T11:39:18.018Z,63.90
2023-03-24T11:42:03.347Z,65.50
2023-03-24T11:44:49.298Z,64.46
2023-03-24T11:47:32.584Z,64.22
2023-03-24T11:50:12.100Z,66.30
2023-03-24T11:52:46.608Z,63.38
2023-03-24T11:55:37.808Z,63.38
2023-03-24T11:58:21.517Z,63.65
2023-03-24T12:01:04.432Z,63.81
2023-03-24T12:04:02.517Z,63.83
2023-03-24T12:07:07.610Z,62.44
2023-03-24T12:10:06.225Z,60.32
2023-03-24T12:13:08.371Z,60.63
2023-03-24T12:15:50.736Z,61.49
2023-03-24T12:18:41.520Z,60.09
2023-03-24T12:21:19.475Z,58.41
2023-03-24T12:23:59.628Z,58.44
2023-03-24T12:26:31.140Z,57.74
2023-03-24T12:29:29.799Z,57.08
2023-03-24T12:32:24.875Z,57.39
2023-03-24T12:35:06.718Z,57.11
2023-03-24T12:37:52.583Z,56.00
2023-03-24T12:40:40.926Z,57.64
2023-03-24T12:43:29.885Z,58.95
2023-03-24T12:46:00.042Z,57.81
2023-03-24T12:48:36.068Z,57.69
2023-03-24T12:51:35.601Z,56.45
2023-03-24T12:54:17.337Z,56.83
2023-03-24T12:57:08.144Z,56.59
2023-03-24T12:59:41.626Z,57.64
2023-03-24T13:02:21.565Z,55.59
2023-03-24T13:04:49.504Z,54.90
2023-03-24T13:07:25.916Z,54.48
2023-03-24T13:10:19.079Z,55.08
2023-03-24T13:13:24.514Z,55.37
2023-03-24T13:16:17.640Z,55.48
2023-03-24T13:18:51.681Z,54.95
2023-03-24T13:21:21.212Z,55.70
2023-03-24T13:23:59.342Z,56.56
2023-03-24T13:26:39.778Z,57.13
2023-03-24T13:29:24.831Z,56.93
2023-03-24T13:31:57.710Z,55.10
2023-03-24T13:34:30.031Z,55.49
2023-03-24T13:37:06.606Z,56.36
2023-03-24T13:39:36.484Z,55.74
2023-03-24T13:42:03.927Z,54.90
2023-03-24T13:44:38.516Z,53.87
2023-03-24T13:47:06.849Z,53.39
2023-03-24T13:49:34.203Z,52.48
2023-03-24T13:52:06.551Z,51.60
2023-03-24T13:54:37.676Z,52.24
2023-03-24T13:57:08.467Z,52.71
2023-03-24T14:00:08.602Z,51.63
2023-03-24T14:02:49.938Z,51.19
2023-03-24T14:05:23.948Z,51.24
2023-03-24T14:08:11.663Z,50.78
2023-03-24T14:10:44.536Z,51.69
2023-03-24T14:13:14.174Z,51.60
2023-03-24T14:15:45.380Z,52.30
2023-03-24T14:18:22.547Z,53.15
2023-03-24T14:20:58.351Z,53.09
2023-03-24T14:23:45.730Z,53.02
2023-03-24T14:26:12.376Z,53.34
2023-03-24T14:28:50.561Z,53.21
2023-03-24T14:31:29.014Z,53.23
2023-03-24T14:34:03.478Z,52.63
2023-03-24T14:36:40.033Z,53.05
2023-03-24T14:39:21.524Z,53.91
2023-03-24T14:41:51.965Z,51.93
2023-03-24T14:44:47.078Z,52.72
2023-03-24T14:47:20.258Z,53.33
2023-03-24T14:49:48.705Z,53.40
2023-03-24T14:52:24.392Z,54.01
2023-03-24T14:54:59.429Z,54.37
2023-03-24T14:57:32.261Z,55.43
2023-03-24T15:00:11.809Z,56.68
2023-03-24T15:02:50.880Z,78.16
2023-03-24T15:05:23.126Z,94.04
2023-03-24T15:08:13.734Z,99.85
2023-03-24T15:10:58.269Z,100.00
2023-03-24T15:13:30.264Z,100.00
2023-03-24T15:15:57.754Z,100.00
2023-03-24T15:18:25.746Z,100.00
2023-03-24T15:20:53.386Z,100.00
2023-03-24T15:23:31.384Z,100.00
2023-03-24T15:25:58.043Z,100.00
2023-03-24T15:28:26.716Z,100.00
2023-03-24T15:30:56.039Z,100.00
2023-03-24T15:33:23.448Z,100.00
2023-03-24T15:35:56.678Z,100.00
2023-03-24T15:38:32.911Z,100.00
2023-03-24T15:40:59.498Z,100.00
2023-03-24T15:43:26.096Z,100.00
2023-03-24T15:46:04.573Z,100.00
2023-03-24T15:48:38.170Z,99.68
2023-03-24T15:51:08.726Z,99.02
2023-03-24T15:53:44.363Z,99.19
2023-03-24T15:56:31.969Z,97.89
2023-03-24T15:59:13.759Z,97.09
2023-03-24T16:01:44.015Z,95.86
2023-03-24T16:04:15.927Z,97.08
2023-03-24T16:06:50.093Z,94.78
2023-03-24T16:09:27.473Z,93.35
2023-03-24T16:11:54.455Z,93.17
2023-03-24T16:14:25.720Z,92.85
2023-03-24T16:16:57.270Z,92.84
2023-03-24T16:19:25.308Z,91.03
2023-03-24T16:21:52.010Z,90.88
2023-03-24T16:24:18.606Z,90.96
2023-03-24T16:26:46.196Z,91.99
2023-03-24T16:29:23.615Z,89.88
2023-03-24T16:31:52.389Z,90.33
2023-03-24T16:34:21.204Z,91.10
2023-03-24T16:36:49.616Z,92.09
2023-03-24T16:39:19.345Z,90.76
2023-03-24T16:41:46.364Z,89.56
2023-03-24T16:44:13.496Z,89.42
2023-03-24T16:46:41.198Z,91.07
2023-03-24T16:49:11.502Z,91.82
2023-03-24T16:51:38.202Z,91.00
2023-03-24T16:54:04.927Z,89.23
2023-03-24T16:56:31.755Z,88.27
2023-03-24T16:58:58.472Z,88.24
2023-03-24T17:01:33.405Z,87.99
2023-03-24T17:04:01.776Z,87.53
2023-03-24T17:06:30.770Z,87.91
2023-03-24T17:08:58.141Z,89.39
2023-03-24T17:11:36.618Z,88.68
2023-03-24T17:14:05.545Z,90.46
2023-03-24T17:16:36.732Z,91.36
2023-03-24T17:19:06.867Z,91.10
2023-03-24T17:21:47.354Z,91.75
2023-03-24T17:24:14.369Z,92.28
2023-03-24T17:26:42.410Z,91.91
2023-03-24T17:29:13.465Z,91.74
2023-03-24T17:31:42.976Z,91.58
2023-03-24T17:34:21.463Z,92.92
2023-03-24T17:36:50.527Z,92.40
2023-03-24T17:39:18.624Z,91.42
2023-03-24T17:41:45.592Z,93.59
2023-03-24T17:44:12.300Z,93.86
2023-03-24T17:46:39.037Z,92.32
2023-03-24T17:49:06.346Z,91.85
2023-03-24T17:51:33.100Z,91.17
2023-03-24T17:53:59.940Z,91.96
2023-03-24T17:56:26.944Z,92.93
2023-03-24T17:58:55.117Z,93.17
2023-03-24T18:01:22.194Z,92.85
2023-03-24T18:03:49.797Z,92.59
2023-03-24T18:06:17.187Z,92.69
2023-03-24T18:08:44.352Z,93.35
2023-03-24T18:11:14.996Z,93.74
2023-03-24T18:13:42.965Z,93.16
2023-03-24T18:16:20.750Z,93.47
2023-03-24T18:18:50.276Z,93.73
2023-03-24T18:21:18.205Z,93.77
2023-03-24T18:23:46.538Z,93.35
2023-03-24T18:26:14.162Z,93.76
2023-03-24T18:28:42.035Z,94.23
2023-03-24T18:31:20.882Z,94.37
2023-03-24T18:33:49.282Z,95.56
2023-03-24T18:36:21.070Z,95.42
2023-03-24T18:38:49.000Z,93.88
2023-03-24T18:41:18.038Z,94.26
2023-03-24T18:43:47.627Z,94.84
2023-03-24T18:46:14.909Z,94.83
2023-03-24T18:48:42.661Z,94.51
2023-03-24T18:51:11.174Z,93.51
2023-03-24T18:53:38.041Z,93.67
2023-03-24T18:56:06.034Z,93.17
2023-03-24T18:58:33.671Z,92.55
2023-03-24T19:01:06.903Z,91.73
2023-03-24T19:03:35.621Z,91.45
2023-03-24T19:06:06.940Z,90.62
2023-03-24T19:08:36.003Z,90.47
2023-03-24T19:11:02.853Z,90.61
2023-03-24T19:13:29.972Z,90.15
2023-03-24T19:15:56.609Z,91.01
2023-03-24T19:18:23.846Z,91.07
2023-03-24T19:20:54.486Z,91.17
2023-03-24T19:23:21.367Z,92.03
2023-03-24T19:25:48.662Z,90.66
2023-03-24T19:28:16.514Z,91.43
2023-03-24T19:30:43.231Z,91.72
2023-03-24T19:33:11.453Z,92.16
2023-03-24T19:35:39.363Z,91.85
2023-03-24T19:38:06.516Z,92.66
2023-03-24T19:40:33.490Z,92.90
2023-03-24T19:43:00.183Z,93.25
2023-03-24T19:45:27.041Z,93.27
2023-03-24T19:47:53.656Z,93.47
2023-03-24T19:50:20.529Z,93.63
2023-03-24T19:52:47.727Z,93.72
2023-03-24T19:55:14.680Z,94.28
2023-03-24T19:57:41.388Z,95.07
2023-03-24T20:00:10.205Z,95.19
2023-03-24T20:02:38.164Z,95.28
2023-03-24T20:05:06.820Z,94.89
2023-03-24T20:07:33.920Z,94.64
2023-03-24T20:10:00.645Z,95.63
2023-03-24T20:12:27.974Z,95.99
2023-03-24T20:14:55.639Z,96.41
2023-03-24T20:17:26.351Z,95.88
2023-03-24T20:19:54.593Z,95.88
2023-03-24T20:22:21.731Z,95.93
2023-03-24T20:24:48.555Z,96.39
2023-03-24T20:27:16.098Z,97.30
2023-03-24T20:29:42.782Z,95.84
2023-03-24T20:32:12.167Z,95.71
2023-03-24T20:34:39.418Z,95.26
2023-03-24T20:37:07.151Z,94.43
2023-03-24T20:39:34.311Z,93.90
2023-03-24T20:42:01.113Z,94.22
2023-03-24T20:44:28.117Z,94.28
2023-03-24T20:46:57.123Z,94.07
2023-03-24T20:49:24.300Z,93.53
2023-03-24T20:51:51.560Z,93.40
2023-03-24T20:54:18.375Z,94.41
2023-03-24T20:56:45.063Z,94.44
2023-03-24T20:59:13.800Z,93.74
2023-03-24T21:01:42.210Z,93.31
2023-03-24T21:04:10.017Z,92.99
2023-03-24T21:06:40.629Z,92.47
2023-03-24T21:09:07.546Z,93.65
2023-03-24T21:11:34.341Z,94.31
2023-03-24T21:14:02.624Z,92.20
2023-03-24T21:16:33.993Z,91.48
2023-03-24T21:19:01.924Z,91.11
2023-03-24T21:21:29.698Z,91.18
2023-03-24T21:23:57.477Z,91.42
2023-03-24T21:26:25.297Z,91.09
2023-03-24T21:28:52.931Z,90.20
2023-03-24T21:31:23.193Z,90.29
2023-03-24T21:33:51.171Z,89.94
2023-03-24T21:36:18.579Z,91.48
2023-03-24T21:38:46.009Z,91.66
2023-03-24T21:41:12.687Z,90.82
2023-03-24T21:43:40.509Z,91.79
2023-03-24T21:46:20.351Z,91.46
2023-03-24T21:48:51.821Z,90.12
2023-03-24T21:51:24.574Z,91.11
2023-03-24T21:53:55.668Z,92.16
2023-03-24T21:56:23.206Z,90.76
2023-03-24T21:58:49.770Z,90.54
2023-03-24T22:01:16.763Z,92.16
2023-03-24T22:03:43.512Z,91.50
2023-03-24T22:06:10.747Z,90.50
2023-03-24T22:08:39.057Z,89.78
2023-03-24T22:11:06.102Z,91.26
2023-03-24T22:13:33.783Z,90.47
2023-03-24T22:16:03.062Z,90.08
2023-03-24T22:18:32.049Z,90.38
2023-03-24T22:21:03.111Z,90.89
2023-03-24T22:23:33.177Z,90.50
2023-03-24T22:26:05.302Z,91.02
2023-03-24T22:28:33.770Z,90.80
2023-03-24T22:31:08.339Z,90.90
2023-03-24T22:33:36.181Z,89.85
2023-03-24T22:36:03.896Z,90.97
2023-03-24T22:38:31.513Z,91.49
2023-03-24T22:40:59.836Z,91.07
2023-03-24T22:43:28.046Z,90.86
2023-03-24T22:45:54.893Z,91.79
2023-03-24T22:48:22.245Z,92.03
2023-03-24T22:50:49.229Z,91.60
2023-03-24T22:53:16.114Z,91.15
2023-03-24T22:55:44.869Z,91.74
2023-03-24T22:58:15.460Z,91.27
2023-03-24T23:00:43.287Z,91.72
2023-03-24T23:03:10.352Z,91.84
2023-03-24T23:05:45.379Z,93.33
2023-03-24T23:08:15.479Z,92.96
2023-03-24T23:10:44.322Z,91.65
2023-03-24T23:13:12.210Z,91.81
2023-03-24T23:15:39.964Z,91.34
2023-03-24T23:18:06.790Z,91.05
2023-03-24T23:20:34.409Z,90.56
2023-03-24T23:23:01.435Z,91.29
2023-03-24T23:25:30.977Z,90.73
2023-03-24T23:27:58.146Z,90.39
2023-03-24T23:30:24.787Z,91.62
2023-03-24T23:32:51.716Z,92.58
2023-03-24T23:35:18.772Z,92.12
2023-03-24T23:37:45.611Z,92.79
2023-03-24T23:40:14.681Z,91.86
2023-03-24T23:42:43.682Z,92.62
2023-03-24T23:45:15.096Z,93.39
2023-03-24T23:47:43.201Z,93.36
2023-03-24T23:50:10.784Z,93.07
2023-03-24T23:52:41.118Z,94.26
2023-03-24T23:55:10.444Z,93.94
2023-03-24T23:57:39.312Z,92.69
